Time;durP1;ratioP1;P1;durP2;ratioP2;P2;SDS_P1;SDS_P2;PMS_P1;PMS_P2;Temp;Humidity;BMP_temperature;BMP_pressure;BME280_temperature;BME280_humidity;BME280_pressure;Samples;Min_cycle;Max_cycle;Signal;HPM_P1;HPM_P2
2023/01/30 00:00:49;;;;;;;72.23;64.97;;;4.50;92.80;;;;;;5013500;28;20268;-89
2023/01/30 00:03:15;;;;;;;76.67;68.83;;;4.50;92.80;;;;;;5012271;28;20177;-89
2023/01/30 00:05:40;;;;;;;73.23;65.63;;;4.50;92.80;;;;;;5013642;28;20637;-89
2023/01/30 00:08:06;;;;;;;83.27;73.83;;;4.50;92.80;;;;;;5012447;28;20234;-89
2023/01/30 00:10:32;;;;;;;71.70;61.60;;;4.50;92.80;;;;;;5013347;28;20220;-90
2023/01/30 00:12:57;;;;;;;72.77;65.13;;;4.60;92.90;;;;;;5013740;28;20662;-90
2023/01/30 00:15:23;;;;;;;76.17;68.23;;;4.60;92.70;;;;;;5013224;28;20195;-90
2023/01/30 00:17:48;;;;;;;70.07;62.63;;;4.60;92.80;;;;;;5012599;28;20215;-91
2023/01/30 00:20:14;;;;;;;69.03;61.53;;;4.60;92.70;;;;;;5012702;28;20210;-90
2023/01/30 00:22:40;;;;;;;70.47;62.83;;;4.60;92.70;;;;;;5012826;28;20196;-90
2023/01/30 00:25:06;;;;;;;73.10;65.77;;;4.70;92.70;;;;;;5012121;28;20191;-90
2023/01/30 00:27:31;;;;;;;72.77;65.37;;;4.60;92.80;;;;;;5012115;28;20652;-91
2023/01/30 00:29:57;;;;;;;76.10;68.20;;;4.70;92.80;;;;;;5012046;28;20191;-91
2023/01/30 00:32:25;;;;;;;72.23;64.97;;;4.70;92.80;;;;;;5011918;28;20239;-90
2023/01/30 00:34:50;;;;;;;67.67;60.43;;;4.70;92.80;;;;;;5012329;28;20177;-90
2023/01/30 00:37:16;;;;;;;69.63;62.33;;;4.70;92.80;;;;;;5015565;28;20226;-90
2023/01/30 00:39:41;;;;;;;67.70;60.57;;;4.70;92.90;;;;;;5015912;28;20175;-90
2023/01/30 00:47:37;;;;;;;86.40;72.87;;;4.80;93.00;;;;;;5017573;28;20171;-90
2023/01/30 00:50:03;;;;;;;81.63;73.30;;;4.80;93.00;;;;;;5015807;28;20200;-89
2023/01/30 00:52:28;;;;;;;82.17;73.37;;;4.80;93.00;;;;;;5015846;28;20205;-90
2023/01/30 00:54:54;;;;;;;67.27;60.63;;;4.80;93.10;;;;;;5016370;28;20177;-90
2023/01/30 00:57:19;;;;;;;66.43;60.53;;;4.80;93.20;;;;;;5015643;28;20175;-89
2023/01/30 00:59:45;;;;;;;75.53;68.30;;;4.80;93.20;;;;;;5015508;28;20666;-90
2023/01/30 01:02:10;;;;;;;78.83;70.37;;;4.80;93.20;;;;;;5015601;28;20221;-91
2023/01/30 01:04:42;;;;;;;80.03;71.83;;;4.80;93.20;;;;;;5015660;28;20192;-89
2023/01/30 01:07:14;;;;;;;87.83;79.03;;;4.80;93.20;;;;;;5016842;28;20157;-89
2023/01/30 01:09:40;;;;;;;78.33;70.97;;;4.80;93.30;;;;;;5016424;28;20200;-89
2023/01/30 01:12:06;;;;;;;75.87;68.37;;;4.80;93.30;;;;;;5014789;28;20204;-89
2023/01/30 01:14:32;;;;;;;80.30;72.27;;;4.90;93.30;;;;;;5015316;28;20642;-89
2023/01/30 01:16:57;;;;;;;90.83;81.40;;;4.90;93.30;;;;;;5014889;28;20176;-90
2023/01/30 01:19:23;;;;;;;79.10;70.53;;;4.90;93.30;;;;;;5014864;28;20660;-89
2023/01/30 01:21:48;;;;;;;91.03;81.73;;;5.00;93.40;;;;;;5015381;28;20200;-89
2023/01/30 01:24:15;;;;;;;81.50;73.87;;;5.00;93.30;;;;;;5016621;28;20172;-89
2023/01/30 01:26:41;;;;;;;89.03;79.90;;;5.00;93.40;;;;;;5015677;28;20580;-91
2023/01/30 01:29:14;;;;;;;85.57;77.83;;;4.90;93.60;;;;;;5015306;28;20181;-90
2023/01/30 01:31:41;;;;;;;93.17;84.73;;;5.00;93.80;;;;;;5016490;28;20203;-90
2023/01/30 01:34:06;;;;;;;87.07;80.07;;;5.00;93.70;;;;;;5014998;28;20212;-90
2023/01/30 01:36:32;;;;;;;87.50;80.17;;;5.00;93.90;;;;;;5014793;28;20176;-91
2023/01/30 01:38:57;;;;;;;93.23;84.47;;;5.00;93.90;;;;;;5014769;28;20177;-90
2023/01/30 01:41:23;;;;;;;87.00;79.27;;;5.10;93.90;;;;;;5014505;28;20195;-90
2023/01/30 01:44:06;;;;;;;106.73;96.33;;;5.10;93.90;;;;;;5015036;28;20552;-90
2023/01/30 01:46:37;;;;;;;93.67;85.43;;;5.00;94.00;;;;;;5016535;28;20184;-90
2023/01/30 01:49:10;;;;;;;108.33;97.93;;;5.00;94.10;;;;;;5013651;28;20267;-90
2023/01/30 01:51:40;;;;;;;95.83;87.93;;;5.00;94.20;;;;;;5014102;28;20211;-91
2023/01/30 01:54:18;;;;;;;99.57;90.47;;;5.10;94.30;;;;;;5015739;28;20196;-90
2023/01/30 01:56:46;;;;;;;101.23;91.97;;;5.10;94.30;;;;;;5014542;28;20174;-90
2023/01/30 01:59:45;;;;;;;104.03;94.90;;;5.10;94.40;;;;;;5014938;28;20259;-90
2023/01/30 02:02:13;;;;;;;100.63;92.60;;;5.10;94.40;;;;;;5015164;28;20206;-90
2023/01/30 02:05:02;;;;;;;107.00;98.37;;;5.10;94.60;;;;;;5013956;28;20227;-90
2023/01/30 02:07:49;;;;;;;105.50;97.20;;;5.10;94.60;;;;;;5013878;28;20180;-89
2023/01/30 02:10:19;;;;;;;105.47;97.00;;;5.20;94.70;;;;;;5013644;28;20263;-90
2023/01/30 02:12:46;;;;;;;104.97;96.27;;;5.20;94.60;;;;;;5013821;28;20169;-91
2023/01/30 02:15:12;;;;;;;97.80;90.23;;;5.30;94.50;;;;;;5013754;28;20185;-91
2023/01/30 02:17:37;;;;;;;116.20;106.80;;;5.30;94.50;;;;;;5014923;28;20176;-89
2023/01/30 02:20:40;;;;;;;105.47;97.87;;;5.20;94.60;;;;;;5014034;28;20200;-90
2023/01/30 02:23:34;;;;;;;109.60;101.20;;;5.30;94.70;;;;;;5013637;28;20176;-89
2023/01/30 02:26:22;;;;;;;108.77;101.20;;;5.30;94.70;;;;;;5013635;28;20273;-90
2023/01/30 02:29:35;;;;;;;109.03;100.73;;;5.30;94.80;;;;;;5013530;28;20597;-90
2023/01/30 02:32:29;;;;;;;109.77;101.73;;;5.40;94.80;;;;;;4962335;28;20233;-90
2023/01/30 02:35:19;;;;;;;110.63;102.03;;;5.40;94.70;;;;;;5014275;28;20184;-90
2023/01/30 02:38:09;;;;;;;118.20;109.40;;;5.40;94.70;;;;;;5013714;28;20185;-90
2023/01/30 02:41:04;;;;;;;107.20;99.63;;;5.40;94.70;;;;;;5014007;28;20658;-89
2023/01/30 02:43:43;;;;;;;115.57;107.57;;;5.40;94.80;;;;;;5014143;28;20177;-89
2023/01/30 02:46:19;;;;;;;113.37;105.70;;;5.40;94.90;;;;;;5013803;28;20177;-90
2023/01/30 02:48:55;;;;;;;119.90;111.47;;;5.50;94.90;;;;;;5013738;28;20209;-90
2023/01/30 02:51:27;;;;;;;117.37;108.97;;;5.50;94.80;;;;;;5013387;28;20219;-90
2023/01/30 02:53:54;;;;;;;123.20;114.20;;;5.50;94.90;;;;;;5013942;28;20635;-89
2023/01/30 02:56:19;;;;;;;122.03;114.20;;;5.50;94.90;;;;;;5014034;28;20238;-90
2023/01/30 02:58:48;;;;;;;117.20;109.20;;;5.50;95.00;;;;;;5013630;28;20180;-90
2023/01/30 03:01:32;;;;;;;122.37;113.63;;;5.50;95.10;;;;;;5013789;28;20221;-89
2023/01/30 03:04:26;;;;;;;126.20;117.23;;;5.50;95.10;;;;;;5013631;28;20554;-90
2023/01/30 03:06:54;;;;;;;124.50;115.90;;;5.50;95.20;;;;;;5014449;28;20203;-90
2023/01/30 03:09:29;;;;;;;131.03;122.23;;;5.60;95.30;;;;;;5013600;28;20558;-89
2023/01/30 03:12:18;;;;;;;127.23;118.57;;;5.60;95.30;;;;;;5013217;28;20257;-90
2023/01/30 03:14:52;;;;;;;135.23;125.13;;;5.50;95.30;;;;;;5013524;28;20173;-90
2023/01/30 03:17:21;;;;;;;129.47;121.00;;;5.60;95.40;;;;;;5013429;28;20175;-90
2023/01/30 03:19:47;;;;;;;134.67;125.13;;;5.60;95.40;;;;;;5013399;28;20283;-89
2023/01/30 03:22:13;;;;;;;136.23;127.33;;;5.60;95.40;;;;;;5013475;28;20633;-89
2023/01/30 03:24:38;;;;;;;131.47;123.07;;;5.70;95.40;;;;;;5013036;28;20186;-89
2023/01/30 03:27:10;;;;;;;128.00;119.00;;;5.60;95.30;;;;;;5013336;28;20232;-88
2023/01/30 03:29:37;;;;;;;135.27;126.67;;;5.70;95.30;;;;;;5013449;28;20272;-89
2023/01/30 03:32:02;;;;;;;133.80;125.43;;;5.70;95.30;;;;;;5013312;28;20588;-89
2023/01/30 03:34:28;;;;;;;134.87;126.37;;;5.70;95.40;;;;;;5013492;28;20173;-89
2023/01/30 03:36:54;;;;;;;135.20;127.00;;;5.70;95.40;;;;;;5013467;28;20184;-89
2023/01/30 03:39:20;;;;;;;140.20;131.30;;;5.80;95.40;;;;;;5013891;28;20662;-89
2023/01/30 03:41:45;;;;;;;140.50;131.77;;;5.80;95.40;;;;;;5014413;28;20215;-89
2023/01/30 03:44:11;;;;;;;144.27;134.87;;;5.80;95.40;;;;;;5012960;28;20184;-89
2023/01/30 03:46:36;;;;;;;140.83;132.07;;;5.90;95.50;;;;;;5012772;28;20193;-90
2023/01/30 03:49:02;;;;;;;138.30;129.37;;;5.80;95.40;;;;;;5013096;28;20192;-89
2023/01/30 03:51:27;;;;;;;145.10;135.87;;;5.90;95.40;;;;;;5012679;28;20209;-89
2023/01/30 03:53:53;;;;;;;144.63;135.13;;;5.90;95.40;;;;;;5012708;28;20180;-89
2023/01/30 03:56:18;;;;;;;145.83;135.77;;;5.90;95.40;;;;;;5012892;28;20651;-89
2023/01/30 03:58:44;;;;;;;151.10;141.10;;;6.00;95.50;;;;;;5015445;28;20193;-90
2023/01/30 04:01:09;;;;;;;147.00;137.57;;;6.00;95.50;;;;;;5013576;28;20239;-89
2023/01/30 04:03:35;;;;;;;118.50;110.33;;;5.80;95.20;;;;;;5013949;28;20173;-90
2023/01/30 04:06:01;;;;;;;113.90;105.20;;;5.50;94.90;;;;;;5014451;28;20176;-90
2023/01/30 04:08:27;;;;;;;109.37;102.13;;;5.40;94.80;;;;;;5016078;28;20563;-90
2023/01/30 04:10:52;;;;;;;115.07;107.30;;;5.40;94.80;;;;;;5015608;28;20205;-90
2023/01/30 04:13:18;;;;;;;118.37;109.90;;;5.30;94.60;;;;;;5017964;28;20176;-90
2023/01/30 04:15:44;;;;;;;120.57;112.33;;;5.30;94.60;;;;;;5017209;28;20223;-90
2023/01/30 04:18:09;;;;;;;117.97;110.33;;;5.40;94.60;;;;;;5018472;28;20173;-90
2023/01/30 04:20:35;;;;;;;114.73;107.33;;;5.50;94.60;;;;;;5017739;28;20201;-89
2023/01/30 04:23:01;;;;;;;116.23;108.27;;;5.50;94.50;;;;;;5017725;28;20177;-90
2023/01/30 04:25:27;;;;;;;119.80;112.00;;;5.50;94.50;;;;;;5017670;28;20185;-90
2023/01/30 04:27:52;;;;;;;121.17;113.03;;;5.50;94.50;;;;;;5018875;28;20185;-90
2023/01/30 04:30:18;;;;;;;124.07;115.87;;;5.60;94.50;;;;;;5017642;28;20209;-90
2023/01/30 04:32:44;;;;;;;118.70;110.93;;;5.60;94.50;;;;;;5018082;28;20173;-90
2023/01/30 04:35:10;;;;;;;106.00;98.90;;;5.50;94.40;;;;;;5017101;28;20180;-90
2023/01/30 04:37:35;;;;;;;106.20;98.27;;;5.60;94.20;;;;;;5017079;28;20179;-90
2023/01/30 04:40:01;;;;;;;100.70;93.90;;;5.50;94.20;;;;;;5019219;28;20173;-91
2023/01/30 04:42:27;;;;;;;97.73;90.70;;;5.50;94.10;;;;;;5018858;28;20177;-89
2023/01/30 04:44:52;;;;;;;95.97;89.13;;;5.50;94.00;;;;;;5018840;28;20199;-90
2023/01/30 04:47:18;;;;;;;102.67;95.80;;;5.60;94.00;;;;;;5017488;28;20689;-90
2023/01/30 04:49:44;;;;;;;100.03;93.10;;;5.50;93.90;;;;;;5016612;28;20565;-90
2023/01/30 04:52:10;;;;;;;96.63;90.17;;;5.50;93.90;;;;;;5016532;28;20224;-89
2023/01/30 04:54:35;;;;;;;85.50;79.57;;;5.50;93.90;;;;;;5017734;28;20177;-89
2023/01/30 04:57:01;;;;;;;85.57;80.27;;;5.50;93.80;;;;;;5017682;28;20255;-89
2023/01/30 04:59:26;;;;;;;89.00;82.70;;;5.60;93.80;;;;;;5017525;28;20184;-90
2023/01/30 05:01:53;;;;;;;89.30;83.53;;;5.50;93.80;;;;;;5016198;28;20686;-89
2023/01/30 05:04:18;;;;;;;81.20;75.37;;;5.50;93.70;;;;;;5017740;28;20177;-90
2023/01/30 05:06:44;;;;;;;87.63;80.53;;;5.50;93.70;;;;;;5016015;28;20264;-89
2023/01/30 05:09:10;;;;;;;84.70;78.43;;;5.50;93.60;;;;;;5016447;28;20639;-90
2023/01/30 05:11:36;;;;;;;83.20;76.97;;;5.50;93.60;;;;;;5016163;28;20224;-89
2023/01/30 05:14:01;;;;;;;83.87;77.00;;;5.40;93.60;;;;;;5015898;28;20184;-90
2023/01/30 05:16:27;;;;;;;84.20;77.17;;;5.40;93.60;;;;;;5017032;28;20699;-89
2023/01/30 05:18:53;;;;;;;78.50;72.33;;;5.40;93.50;;;;;;5015902;28;20280;-90
2023/01/30 05:21:21;;;;;;;80.33;73.57;;;5.30;93.50;;;;;;5015821;28;20229;-89
2023/01/30 05:23:47;;;;;;;79.37;73.40;;;5.30;93.40;;;;;;5014866;28;20192;-90
2023/01/30 05:26:14;;;;;;;73.17;67.40;;;5.30;93.30;;;;;;5015639;28;20177;-89
2023/01/30 05:28:40;;;;;;;65.57;60.33;;;5.30;93.20;;;;;;5015988;28;20188;-89
2023/01/30 05:31:10;;;;;;;66.47;61.20;;;5.30;93.10;;;;;;5015590;28;20563;-90
2023/01/30 05:33:37;;;;;;;66.77;61.80;;;5.20;92.90;;;;;;5016896;28;20526;-90
2023/01/30 05:36:04;;;;;;;59.10;53.87;;;5.20;92.90;;;;;;5016264;28;20191;-89
2023/01/30 05:38:30;;;;;;;54.87;50.33;;;5.20;92.70;;;;;;5015840;28;20178;-89
2023/01/30 05:41:06;;;;;;;56.80;51.37;;;5.10;92.60;;;;;;5015493;28;20263;-89
2023/01/30 05:43:34;;;;;;;58.83;53.87;;;5.00;92.60;;;;;;5015752;28;20188;-91
2023/01/30 05:46:01;;;;;;;60.43;54.70;;;5.00;92.60;;;;;;5015641;28;20235;-90
2023/01/30 05:48:27;;;;;;;60.77;55.23;;;5.00;92.70;;;;;;5015447;28;20185;-89
2023/01/30 05:50:56;;;;;;;58.53;53.07;;;5.00;92.70;;;;;;5015510;28;20273;-89
2023/01/30 05:53:23;;;;;;;60.07;54.40;;;5.00;92.70;;;;;;5015644;28;20193;-90
2023/01/30 05:55:58;;;;;;;56.77;52.00;;;5.10;92.80;;;;;;5015526;28;20650;-90
2023/01/30 05:58:24;;;;;;;59.27;54.10;;;5.10;92.60;;;;;;5015795;28;20718;-89
2023/01/30 06:00:50;;;;;;;61.53;55.23;;;5.00;92.70;;;;;;5015045;28;20255;-89
2023/01/30 06:03:16;;;;;;;60.70;55.13;;;5.00;92.80;;;;;;5015399;28;20326;-89
2023/01/30 06:05:41;;;;;;;61.30;55.80;;;4.90;92.80;;;;;;5015343;28;20192;-90
2023/01/30 06:08:07;;;;;;;64.00;58.20;;;4.90;92.90;;;;;;5015531;28;20192;-89
2023/01/30 06:10:34;;;;;;;65.20;58.63;;;4.90;92.90;;;;;;5015398;28;20216;-89
2023/01/30 06:12:59;;;;;;;64.50;59.53;;;4.80;92.90;;;;;;5015259;28;20270;-89
2023/01/30 06:15:25;;;;;;;62.70;57.40;;;4.90;93.00;;;;;;5015278;28;20177;-89
2023/01/30 06:17:50;;;;;;;61.07;55.77;;;4.90;92.90;;;;;;5015571;28;20184;-89
2023/01/30 06:20:16;;;;;;;58.80;53.33;;;4.90;92.80;;;;;;5015357;28;20196;-90
2023/01/30 06:22:41;;;;;;;54.40;50.13;;;4.90;92.80;;;;;;5016600;28;20571;-90
2023/01/30 06:25:08;;;;;;;55.20;50.53;;;4.80;92.70;;;;;;5015302;28;20184;-90
2023/01/30 06:27:33;;;;;;;49.13;44.70;;;4.80;92.40;;;;;;5016078;28;20522;-89
2023/01/30 06:29:59;;;;;;;44.83;41.10;;;4.80;92.10;;;;;;5014994;28;20281;-90
2023/01/30 06:32:25;;;;;;;42.33;38.33;;;4.80;91.90;;;;;;5014304;28;20242;-89
2023/01/30 06:34:50;;;;;;;46.33;41.33;;;4.90;91.70;;;;;;5014298;28;20203;-89
2023/01/30 06:37:16;;;;;;;41.93;37.37;;;4.80;91.60;;;;;;5016449;28;20177;-89
2023/01/30 06:39:41;;;;;;;37.23;33.77;;;4.80;91.30;;;;;;5015850;28;20173;-90
2023/01/30 06:42:07;;;;;;;44.93;35.13;;;4.80;91.20;;;;;;5014278;28;20212;-89
2023/01/30 06:44:32;;;;;;;40.17;35.53;;;4.80;91.20;;;;;;5014203;28;20172;-89
2023/01/30 06:46:58;;;;;;;39.73;35.87;;;4.80;91.20;;;;;;5015052;28;20180;-89
2023/01/30 06:49:23;;;;;;;37.37;33.30;;;4.80;91.30;;;;;;5013986;28;20184;-89
2023/01/30 06:51:49;;;;;;;39.83;35.67;;;4.80;91.30;;;;;;5014569;28;20232;-90
2023/01/30 06:54:14;;;;;;;42.87;35.43;;;4.80;91.20;;;;;;5014431;28;20177;-89
2023/01/30 06:56:40;;;;;;;42.20;33.60;;;4.90;91.00;;;;;;5013813;28;20173;-90
2023/01/30 06:59:05;;;;;;;44.53;35.17;;;4.90;90.90;;;;;;5014623;28;20192;-89
2023/01/30 07:01:31;;;;;;;44.87;37.23;;;4.90;90.90;;;;;;5014528;28;20208;-91
2023/01/30 07:03:56;;;;;;;36.13;33.00;;;4.80;91.00;;;;;;5015068;28;20180;-89
2023/01/30 07:06:22;;;;;;;55.07;35.47;;;4.80;91.00;;;;;;5015039;28;20195;-90
2023/01/30 07:08:47;;;;;;;38.30;34.47;;;4.80;91.10;;;;;;5014298;28;20647;-90
2023/01/30 07:11:14;;;;;;;37.67;31.40;;;4.70;91.20;;;;;;4997787;28;20310;-89
2023/01/30 07:13:39;;;;;;;38.03;32.27;;;4.80;91.10;;;;;;5014434;28;20582;-89
2023/01/30 07:16:05;;;;;;;43.03;30.80;;;4.70;91.00;;;;;;5013815;28;20661;-89
2023/01/30 07:18:31;;;;;;;48.47;31.00;;;4.70;91.10;;;;;;5014312;28;20180;-90
2023/01/30 07:20:56;;;;;;;36.73;30.53;;;4.70;91.00;;;;;;5013687;28;20239;-89
2023/01/30 07:23:22;;;;;;;42.33;30.67;;;4.70;91.00;;;;;;5013658;28;20189;-89
2023/01/30 07:25:47;;;;;;;44.27;33.47;;;4.80;91.10;;;;;;5014067;28;20664;-89
2023/01/30 07:28:13;;;;;;;34.53;29.83;;;4.70;91.20;;;;;;5014974;28;20214;-89
2023/01/30 07:30:38;;;;;;;39.00;30.63;;;4.70;91.30;;;;;;5013890;28;20219;-89
2023/01/30 07:33:05;;;;;;;37.03;32.87;;;4.80;91.40;;;;;;5013733;28;20635;-89
2023/01/30 07:35:33;;;;;;;37.83;30.90;;;4.90;91.60;;;;;;5013453;28;20184;-89
2023/01/30 07:37:59;;;;;;;41.47;30.47;;;5.00;91.50;;;;;;5014865;28;20184;-89
2023/01/30 07:40:25;;;;;;;61.20;33.73;;;5.00;91.30;;;;;;5013758;28;20205;-90
2023/01/30 07:43:02;;;;;;;62.87;35.10;;;5.00;91.40;;;;;;5013407;28;20184;-89
2023/01/30 07:45:34;;;;;;;48.23;30.73;;;5.10;91.60;;;;;;5013511;28;20180;-90
2023/01/30 07:47:59;;;;;;;58.23;30.50;;;5.20;91.30;;;;;;5013392;28;20175;-89
2023/01/30 07:50:25;;;;;;;68.63;34.00;;;5.20;91.00;;;;;;5014769;28;20684;-89
2023/01/30 07:52:51;;;;;;;68.80;32.60;;;5.20;90.90;;;;;;5013208;28;20173;-89
2023/01/30 07:55:16;;;;;;;59.03;32.30;;;5.10;91.00;;;;;;5013223;28;20604;-89
2023/01/30 07:57:42;;;;;;;69.27;32.50;;;5.10;90.90;;;;;;5013476;28;20181;-89
2023/01/30 08:00:09;;;;;;;62.07;32.47;;;5.20;90.90;;;;;;5012995;28;20690;-89
2023/01/30 08:02:35;;;;;;;59.17;31.33;;;5.10;90.80;;;;;;5012953;28;20185;-89
2023/01/30 08:05:01;;;;;;;56.80;32.03;;;5.20;90.80;;;;;;5012987;28;20184;-89
2023/01/30 08:07:26;;;;;;;75.43;34.60;;;5.20;90.70;;;;;;5012973;28;20613;-89
2023/01/30 08:09:52;;;;;;;58.33;29.27;;;5.10;90.60;;;;;;5013168;28;20192;-89
2023/01/30 08:12:17;;;;;;;53.93;27.13;;;5.10;90.30;;;;;;5014061;28;20212;-89
2023/01/30 08:14:43;;;;;;;51.77;29.77;;;5.10;90.00;;;;;;5014201;28;20557;-89
2023/01/30 08:17:08;;;;;;;66.03;30.47;;;5.10;90.10;;;;;;5013149;28;20192;-89
2023/01/30 08:19:34;;;;;;;65.70;30.03;;;5.20;90.20;;;;;;5012862;28;20191;-90
2023/01/30 08:21:59;;;;;;;55.40;28.07;;;5.30;90.20;;;;;;5012718;28;20200;-89
2023/01/30 08:24:25;;;;;;;55.43;26.10;;;5.30;90.10;;;;;;5012834;28;20603;-89
2023/01/30 08:26:50;;;;;;;48.03;24.63;;;5.30;89.60;;;;;;5012979;28;20189;-89
2023/01/30 08:29:16;;;;;;;52.83;28.37;;;5.30;89.70;;;;;;5013036;28;20303;-90
2023/01/30 08:31:41;;;;;;;53.13;28.73;;;5.30;89.80;;;;;;5016795;28;20244;-89
2023/01/30 08:34:07;;;;;;;51.57;28.57;;;5.30;90.00;;;;;;5014941;28;20224;-89
2023/01/30 08:36:33;;;;;;;49.20;28.77;;;5.30;90.00;;;;;;5016633;28;20177;-89
2023/01/30 08:38:58;;;;;;;62.90;31.67;;;5.30;90.10;;;;;;5016117;28;20189;-90
2023/01/30 08:41:26;;;;;;;72.60;32.33;;;5.30;90.30;;;;;;5017316;28;20255;-90
2023/01/30 08:43:51;;;;;;;59.37;30.70;;;5.40;90.30;;;;;;5014411;28;20766;-90
2023/01/30 08:46:18;;;;;;;53.97;26.73;;;5.50;90.00;;;;;;5013708;28;20226;-89
2023/01/30 08:48:45;;;;;;;52.97;26.20;;;5.60;89.70;;;;;;5012546;28;20191;-89
2023/01/30 08:51:10;;;;;;;54.00;27.60;;;5.60;89.50;;;;;;5012865;28;20209;-89
2023/01/30 08:53:36;;;;;;;51.43;26.90;;;5.60;89.20;;;;;;5014217;28;20232;-89
2023/01/30 08:56:01;;;;;;;63.80;27.27;;;5.60;89.20;;;;;;5012531;28;20690;-88
2023/01/30 08:58:27;;;;;;;60.87;29.73;;;5.60;89.30;;;;;;5015263;28;20796;-88
2023/01/30 09:00:53;;;;;;;54.97;24.77;;;5.70;88.90;;;;;;5016253;28;20237;-88
2023/01/30 09:03:18;;;;;;;57.87;25.43;;;5.60;88.80;;;;;;5015945;28;20181;-89
2023/01/30 09:05:44;;;;;;;35.33;23.40;;;5.60;89.00;;;;;;5017487;28;20185;-88
2023/01/30 09:08:10;;;;;;;45.70;23.43;;;5.60;88.80;;;;;;5016674;28;20676;-90
2023/01/30 09:10:36;;;;;;;46.33;25.30;;;5.60;88.80;;;;;;5016018;28;20312;-89
2023/01/30 09:13:04;;;;;;;44.43;23.73;;;5.50;88.90;;;;;;5017302;28;20169;-89
2023/01/30 09:15:31;;;;;;;38.10;21.83;;;5.60;89.00;;;;;;5017169;28;20519;-89
2023/01/30 09:17:56;;;;;;;38.17;25.00;;;5.70;88.60;;;;;;5015750;28;20201;-89
2023/01/30 09:20:22;;;;;;;53.07;27.23;;;5.70;89.00;;;;;;5015358;28;20219;-89
2023/01/30 09:22:48;;;;;;;49.83;24.77;;;5.80;89.10;;;;;;5015775;28;20184;-89
2023/01/30 09:25:13;;;;;;;50.20;22.50;;;6.00;89.20;;;;;;5016214;28;20176;-89
2023/01/30 09:27:43;;;;;;;54.03;24.80;;;6.10;88.50;;;;;;5015840;28;20181;-89
2023/01/30 09:30:09;;;;;;;25.77;18.40;;;6.00;88.30;;;;;;5015483;28;20228;-89
2023/01/30 09:32:36;;;;;;;49.03;22.67;;;6.10;88.20;;;;;;5015822;28;20213;-89
2023/01/30 09:35:02;;;;;;;48.13;21.63;;;6.20;87.50;;;;;;5017382;28;20165;-89
2023/01/30 09:37:28;;;;;;;49.73;24.17;;;6.20;87.50;;;;;;5015557;28;20177;-89
2023/01/30 09:39:53;;;;;;;46.60;24.60;;;6.00;88.00;;;;;;5016260;28;20651;-89
2023/01/30 09:42:37;;;;;;;54.63;26.53;;;5.90;88.20;;;;;;5016442;28;20173;-89
2023/01/30 09:45:20;;;;;;;43.73;27.53;;;5.80;88.60;;;;;;5016286;28;20631;-88
2023/01/30 09:48:18;;;;;;;50.77;29.50;;;5.70;89.00;;;;;;5014553;28;20175;-89
2023/01/30 09:50:53;;;;;;;41.83;30.93;;;5.60;89.60;;;;;;5014300;28;20205;-90
2023/01/30 09:53:53;;;;;;;44.37;31.17;;;5.40;89.90;;;;;;5014422;28;20165;-90
2023/01/30 09:56:19;;;;;;;44.10;34.77;;;4.90;90.90;;;;;;5014326;28;20202;-89
2023/01/30 09:58:50;;;;;;;41.17;34.60;;;4.90;91.20;;;;;;5014742;28;20173;-90
2023/01/30 10:01:25;;;;;;;39.00;32.27;;;4.80;91.30;;;;;;5014700;28;20282;-90
2023/01/30 10:04:17;;;;;;;40.00;30.87;;;4.80;91.30;;;;;;5014716;28;20172;-91
2023/01/30 10:07:03;;;;;;;26.40;23.77;;;4.70;91.40;;;;;;5014259;28;20271;-90
2023/01/30 10:10:03;;;;;;;23.63;21.30;;;4.50;90.60;;;;;;5013094;28;20184;-90
2023/01/30 10:12:49;;;;;;;20.33;17.57;;;4.60;90.30;;;;;;5014058;28;20773;-90
2023/01/30 10:15:35;;;;;;;21.77;19.57;;;4.80;89.50;;;;;;5014764;28;20255;-90
2023/01/30 10:18:45;;;;;;;45.97;23.93;;;4.60;89.70;;;;;;5014083;28;20195;-90
2023/01/30 10:21:33;;;;;;;41.97;25.97;;;4.60;90.20;;;;;;4993443;28;20821;-90
2023/01/30 10:24:44;;;;;;;41.17;24.53;;;4.90;90.60;;;;;;5014324;28;20175;-90
2023/01/30 10:27:14;;;;;;;37.73;26.77;;;5.50;90.30;;;;;;5014873;28;20654;-89
2023/01/30 10:29:56;;;;;;;51.23;25.23;;;5.50;90.20;;;;;;5017872;28;20675;-91
2023/01/30 10:32:50;;;;;;;46.00;25.20;;;5.70;90.10;;;;;;5015232;28;20203;-89
2023/01/30 10:35:20;;;;;;;49.03;24.17;;;5.80;89.90;;;;;;5010010;28;20189;-90
2023/01/30 10:38:11;;;;;;;45.73;27.80;;;5.80;88.80;;;;;;5014751;28;20193;-90
2023/01/30 10:40:52;;;;;;;54.13;28.47;;;5.60;89.60;;;;;;4995925;28;20219;-91
2023/01/30 10:43:26;;;;;;;39.80;28.50;;;5.40;90.40;;;;;;5015219;28;20176;-90
2023/01/30 10:46:25;;;;;;;29.50;26.70;;;5.30;90.50;;;;;;5014908;28;20176;-91
2023/01/30 10:48:56;;;;;;;29.23;26.23;;;5.00;90.20;;;;;;5016347;28;20179;-91
2023/01/30 10:51:31;;;;;;;26.53;23.87;;;4.90;90.30;;;;;;5019115;28;20219;-92
2023/01/30 10:54:08;;;;;;;26.23;24.10;;;4.80;90.30;;;;;;5021418;28;20188;-92
2023/01/30 10:56:37;;;;;;;27.03;24.40;;;4.70;90.20;;;;;;5015151;28;20202;-91
2023/01/30 10:59:28;;;;;;;30.53;27.57;;;4.60;90.20;;;;;;5016723;28;20186;-91
2023/01/30 11:02:17;;;;;;;30.80;28.00;;;4.60;90.70;;;;;;5016437;28;20271;-91
2023/01/30 11:04:46;;;;;;;31.13;28.40;;;4.50;91.00;;;;;;5021327;28;20172;-92
2023/01/30 11:07:12;;;;;;;30.37;27.30;;;4.50;91.20;;;;;;5017944;28;20227;-91
2023/01/30 11:09:44;;;;;;;30.83;28.63;;;4.60;91.30;;;;;;5018231;28;20181;-91
2023/01/30 11:12:10;;;;;;;32.80;29.27;;;4.50;91.40;;;;;;5016788;28;20207;-88
2023/01/30 11:15:02;;;;;;;31.57;29.10;;;4.50;91.60;;;;;;5013213;28;20176;-90
2023/01/30 11:17:36;;;;;;;33.73;31.13;;;4.50;91.80;;;;;;5018165;28;20160;-91
2023/01/30 11:20:15;;;;;;;34.40;30.67;;;4.50;92.00;;;;;;5014113;28;20180;-92
2023/01/30 11:22:49;;;;;;;34.80;32.00;;;4.30;92.00;;;;;;5017115;28;20323;-90
2023/01/30 11:25:20;;;;;;;34.27;31.10;;;4.30;92.20;;;;;;5013755;28;20175;-91
2023/01/30 11:28:00;;;;;;;35.40;31.80;;;4.20;92.20;;;;;;5012922;28;20207;-90
2023/01/30 11:30:29;;;;;;;37.33;33.83;;;4.20;92.20;;;;;;5019150;28;20192;-91
2023/01/30 11:33:15;;;;;;;36.30;32.97;;;4.40;92.50;;;;;;5013393;28;20258;-90
2023/01/30 11:36:03;;;;;;;33.87;30.80;;;4.80;92.60;;;;;;5012689;28;20172;-90
2023/01/30 11:38:31;;;;;;;33.00;30.13;;;4.90;92.10;;;;;;5013804;28;20246;-90
2023/01/30 11:41:12;;;;;;;35.20;31.40;;;5.00;92.00;;;;;;5013105;28;20205;-88
2023/01/30 11:43:38;;;;;;;33.67;30.83;;;5.30;92.10;;;;;;5012643;28;20200;-89
2023/01/30 11:46:11;;;;;;;36.40;30.90;;;5.40;91.90;;;;;;5012909;28;20191;-91
2023/01/30 11:48:54;;;;;;;37.07;30.77;;;5.60;91.90;;;;;;5018102;28;20331;-92
2023/01/30 11:51:22;;;;;;;36.73;29.50;;;5.60;91.60;;;;;;5019867;28;20339;-89
2023/01/30 11:54:07;;;;;;;44.10;30.40;;;5.60;91.70;;;;;;5012701;28;20177;-90
2023/01/30 11:56:41;;;;;;;44.47;31.53;;;5.60;91.50;;;;;;5012723;28;20169;-89
2023/01/30 11:59:35;;;;;;;43.67;33.87;;;5.60;91.80;;;;;;5012620;28;20187;-90
2023/01/30 12:02:31;;;;;;;39.70;33.77;;;5.60;91.80;;;;;;5012728;28;20240;-92
2023/01/30 12:05:22;;;;;;;47.90;32.10;;;5.50;91.80;;;;;;5020761;28;20172;-90
2023/01/30 12:07:50;;;;;;;47.37;29.10;;;5.50;91.80;;;;;;5007898;28;20197;-91
2023/01/30 12:10:29;;;;;;;30.10;22.83;;;5.40;91.50;;;;;;5012292;28;20721;-90
2023/01/30 12:13:01;;;;;;;20.43;18.30;;;5.40;90.00;;;;;;5014026;28;20164;-92
2023/01/30 12:15:30;;;;;;;30.43;19.73;;;5.30;89.70;;;;;;5013095;28;20692;-91
2023/01/30 12:18:20;;;;;;;29.93;21.13;;;5.30;89.70;;;;;;5012268;28;20181;-90
2023/01/30 12:20:55;;;;;;;31.33;22.47;;;5.20;89.40;;;;;;5012130;28;20192;-90
2023/01/30 12:23:39;;;;;;;43.97;23.30;;;5.30;89.90;;;;;;5012107;28;20176;-89
2023/01/30 12:26:13;;;;;;;42.73;23.80;;;5.50;89.80;;;;;;5012345;28;20632;-89
2023/01/30 12:29:09;;;;;;;48.13;24.47;;;5.30;89.70;;;;;;5012023;28;20275;-90
2023/01/30 12:31:42;;;;;;;33.57;24.53;;;5.30;89.90;;;;;;5012532;28;20265;-90
2023/01/30 12:34:11;;;;;;;48.23;24.53;;;5.70;90.00;;;;;;5017746;28;20183;-91
2023/01/30 12:37:05;;;;;;;47.20;25.77;;;5.70;89.70;;;;;;5017070;28;20172;-89
2023/01/30 12:39:44;;;;;;;51.13;23.97;;;5.70;89.70;;;;;;5016416;28;20172;-89
2023/01/30 12:42:46;;;;;;;30.70;22.90;;;5.80;89.30;;;;;;5016732;28;20653;-89
2023/01/30 12:45:28;;;;;;;55.10;23.30;;;6.10;88.80;;;;;;5016778;28;20211;-90
2023/01/30 12:48:24;;;;;;;49.87;21.80;;;6.20;88.10;;;;;;5016748;28;20272;-91
2023/01/30 12:51:20;;;;;;;45.67;20.37;;;6.50;87.60;;;;;;5015534;28;20713;-90
2023/01/30 12:53:50;;;;;;;48.10;21.10;;;6.60;86.20;;;;;;5016697;28;20175;-90
2023/01/30 12:56:35;;;;;;;47.20;21.40;;;6.70;86.20;;;;;;5017423;28;20166;-90
2023/01/30 12:59:10;;;;;;;39.87;20.13;;;6.60;86.00;;;;;;5016523;28;20205;-90